createdAt,value
2022-09-28T00:00:52.354Z,4.07
2022-09-28T00:03:28.108Z,3.83
2022-09-28T00:06:01.070Z,8.97
2022-09-28T00:08:30.867Z,9.10
2022-09-28T00:10:58.615Z,5.03
2022-09-28T00:13:25.425Z,2.35
2022-09-28T00:16:06.297Z,3.53
2022-09-28T00:18:33.702Z,6.63
2022-09-28T00:21:02.787Z,4.20
2022-09-28T00:23:29.535Z,7.88
2022-09-28T00:25:56.347Z,3.63
2022-09-28T00:28:23.030Z,3.13
2022-09-28T00:30:55.314Z,3.53
2022-09-28T00:33:22.338Z,4.97
2022-09-28T00:35:58.535Z,7.22
2022-09-28T00:38:27.875Z,4.80
2022-09-28T00:40:55.995Z,4.90
2022-09-28T00:43:24.087Z,3.40
2022-09-28T00:46:00.305Z,3.70
2022-09-28T00:48:30.583Z,4.63
2022-09-28T00:51:02.175Z,7.38
2022-09-28T00:53:32.151Z,6.93
2022-09-28T00:56:07.524Z,4.07
2022-09-28T00:58:40.848Z,4.05
2022-09-28T01:01:08.493Z,3.70
2022-09-28T01:03:35.515Z,3.38
2022-09-28T01:06:04.504Z,3.45
2022-09-28T01:08:33.049Z,4.67
2022-09-28T01:11:00.442Z,3.80
2022-09-28T01:13:28.709Z,3.75
2022-09-28T01:16:13.104Z,3.10
2022-09-28T01:18:46.200Z,3.03
2022-09-28T01:21:17.715Z,3.63
2022-09-28T01:23:56.468Z,3.28
2022-09-28T01:26:33.175Z,2.70
2022-09-28T01:29:06.270Z,2.58
2022-09-28T01:31:36.497Z,3.35
2022-09-28T01:34:14.885Z,3.73
2022-09-28T01:36:51.195Z,3.35
2022-09-28T01:39:23.947Z,2.78
2022-09-28T01:41:53.241Z,3.33
2022-09-28T01:44:22.307Z,3.90
2022-09-28T01:46:50.529Z,9.20
2022-09-28T01:49:22.531Z,12.10
2022-09-28T01:52:13.959Z,16.92
2022-09-28T01:54:47.108Z,20.67
2022-09-28T01:57:31.816Z,22.27
2022-09-28T02:00:05.198Z,34.87
2022-09-28T02:02:49.459Z,62.78
2022-09-28T02:05:29.405Z,33.33
2022-09-28T02:08:08.166Z,21.17
2022-09-28T02:10:45.698Z,22.88
2022-09-28T02:13:18.379Z,7.67
2022-09-28T02:15:58.546Z,6.30
2022-09-28T02:18:25.301Z,4.65
2022-09-28T02:21:10.952Z,6.38
2022-09-28T02:23:41.412Z,4.55
2022-09-28T02:26:11.881Z,3.40
2022-09-28T02:28:38.603Z,7.22
2022-09-28T02:31:05.583Z,4.20
2022-09-28T02:33:39.888Z,2.70
2022-09-28T02:36:07.373Z,7.82
2022-09-28T02:38:38.371Z,3.10
2022-09-28T02:41:14.665Z,2.25
2022-09-28T02:44:00.225Z,2.20
2022-09-28T02:46:34.041Z,5.18
2022-09-28T02:49:49.434Z,13.38
2022-09-28T02:52:37.904Z,11.03
2022-09-28T02:55:20.012Z,8.05
2022-09-28T02:58:14.590Z,5.22
2022-09-28T03:00:49.794Z,8.88
2022-09-28T03:03:38.617Z,16.80
2022-09-28T03:06:45.197Z,7.43
2022-09-28T03:09:22.974Z,3.25
2022-09-28T03:11:54.001Z,4.00
2022-09-28T03:14:20.774Z,2.50
2022-09-28T03:16:54.174Z,3.67
2022-09-28T03:19:24.842Z,10.10
2022-09-28T03:21:52.012Z,6.85
2022-09-28T03:24:18.824Z,10.48
2022-09-28T03:26:45.862Z,9.95
2022-09-28T03:29:13.730Z,3.00
2022-09-28T03:31:41.091Z,6.73
2022-09-28T03:34:07.854Z,11.45
2022-09-28T03:36:34.465Z,10.80
2022-09-28T03:39:01.364Z,10.40
2022-09-28T03:41:28.027Z,2.90
2022-09-28T03:43:54.902Z,3.73
2022-09-28T03:46:24.324Z,4.60
2022-09-28T03:48:57.309Z,8.65
2022-09-28T03:51:24.368Z,8.15
2022-09-28T03:53:51.192Z,5.47
2022-09-28T03:56:17.907Z,3.60
2022-09-28T03:58:44.608Z,3.08
2022-09-28T04:01:17.386Z,8.27
2022-09-28T04:03:46.471Z,5.50
2022-09-28T04:06:14.505Z,2.60
2022-09-28T04:08:41.199Z,3.70
2022-09-28T04:11:08.681Z,25.20
2022-09-28T04:13:37.047Z,30.67
2022-09-28T04:16:05.346Z,11.90
2022-09-28T04:18:35.194Z,4.85
2022-09-28T04:21:10.251Z,9.27
2022-09-28T04:23:46.733Z,2.90
2022-09-28T04:26:21.979Z,2.40
2022-09-28T04:29:08.157Z,2.38
2022-09-28T04:31:41.930Z,5.20
2022-09-28T04:34:09.073Z,3.00
2022-09-28T04:36:35.952Z,2.40
2022-09-28T04:39:02.840Z,2.30
2022-09-28T04:41:31.311Z,1.83
2022-09-28T04:43:58.494Z,7.68
2022-09-28T04:46:26.212Z,6.97
2022-09-28T04:49:16.024Z,5.18
2022-09-28T04:51:53.603Z,5.90
2022-09-28T04:54:20.488Z,16.10
2022-09-28T04:56:47.140Z,6.72
2022-09-28T04:59:14.416Z,4.53
2022-09-28T05:01:42.723Z,3.47
2022-09-28T05:04:28.208Z,2.88
2022-09-28T05:07:13.653Z,2.35
2022-09-28T05:09:40.335Z,2.80
2022-09-28T05:12:09.169Z,4.20
2022-09-28T05:14:37.241Z,5.50
2022-09-28T05:17:04.379Z,4.50
2022-09-28T05:19:48.989Z,4.97
2022-09-28T05:22:16.398Z,4.43
2022-09-28T05:24:46.849Z,2.90
2022-09-28T05:27:14.684Z,2.03
2022-09-28T05:29:43.042Z,2.22
2022-09-28T05:32:24.949Z,2.20
2022-09-28T05:35:06.296Z,2.55
2022-09-28T05:37:41.171Z,2.80
2022-09-28T05:40:08.268Z,3.03
2022-09-28T05:42:35.546Z,2.33
2022-09-28T05:45:03.513Z,3.53
2022-09-28T05:47:30.276Z,5.15
2022-09-28T05:49:57.274Z,7.43
2022-09-28T05:52:24.161Z,7.45
2022-09-28T05:54:50.858Z,9.43
2022-09-28T05:57:17.619Z,12.93
2022-09-28T05:59:44.583Z,20.98
2022-09-28T06:02:11.304Z,16.03
2022-09-28T06:04:38.011Z,13.80
2022-09-28T06:07:05.311Z,11.30
2022-09-28T06:09:32.141Z,6.60
2022-09-28T06:12:12.254Z,5.20
2022-09-28T06:14:49.203Z,3.90
2022-09-28T06:17:16.092Z,4.25
2022-09-28T06:19:47.404Z,3.03
2022-09-28T06:22:37.918Z,2.97
2022-09-28T06:25:08.084Z,3.10
2022-09-28T06:27:34.804Z,3.00
2022-09-28T06:30:02.200Z,2.90
2022-09-28T06:32:29.779Z,2.65
2022-09-28T06:34:57.075Z,2.53
2022-09-28T06:37:27.196Z,2.47
2022-09-28T06:39:54.748Z,2.50
2022-09-28T06:42:21.963Z,2.67
2022-09-28T06:45:11.485Z,2.42
2022-09-28T06:48:03.907Z,2.30
2022-09-28T06:50:40.932Z,2.50
2022-09-28T06:53:28.939Z,1.60
2022-09-28T06:56:11.040Z,2.17
2022-09-28T06:58:37.832Z,2.17
2022-09-28T07:01:05.739Z,2.70
2022-09-28T07:03:42.318Z,2.78
2022-09-28T07:06:26.183Z,5.90
2022-09-28T07:09:26.641Z,4.05
2022-09-28T07:12:19.585Z,6.60
2022-09-28T07:14:57.267Z,12.93
2022-09-28T07:17:26.085Z,13.23
2022-09-28T07:19:58.665Z,33.03
2022-09-28T07:22:40.290Z,23.27
2022-09-28T07:25:09.660Z,14.50
2022-09-28T07:27:42.180Z,15.52
2022-09-28T07:30:19.794Z,10.68
2022-09-28T07:33:03.158Z,4.50
2022-09-28T07:35:39.233Z,3.20
2022-09-28T07:38:07.455Z,1.50
2022-09-28T07:40:54.348Z,1.50
2022-09-28T07:43:22.215Z,1.30
2022-09-28T07:45:53.878Z,1.00
2022-09-28T07:48:21.744Z,1.00
2022-09-28T07:50:59.974Z,2.40
2022-09-28T07:53:35.201Z,1.95
2022-09-28T07:56:18.208Z,1.80
2022-09-28T07:58:55.350Z,3.33
2022-09-28T08:01:40.221Z,2.05
2022-09-28T08:04:09.483Z,1.50
2022-09-28T08:06:37.211Z,1.13
2022-09-28T08:09:05.940Z,1.00
2022-09-28T08:11:51.449Z,1.10
2022-09-28T08:14:44.614Z,1.13
2022-09-28T08:17:33.516Z,0.88
2022-09-28T08:20:24.344Z,0.90
2022-09-28T08:22:51.088Z,0.95
2022-09-28T08:25:17.946Z,0.80
2022-09-28T08:27:44.729Z,0.80
2022-09-28T08:30:11.794Z,0.90
2022-09-28T08:32:38.725Z,0.70
2022-09-28T08:35:26.219Z,0.70
2022-09-28T08:38:10.926Z,0.77
2022-09-28T08:41:33.929Z,0.70
2022-09-28T08:44:48.341Z,0.65
2022-09-28T08:48:20.695Z,0.70
2022-09-28T08:51:18.268Z,0.70
2022-09-28T08:54:08.052Z,0.60
2022-09-28T08:57:03.257Z,0.60
2022-09-28T08:59:49.669Z,0.60
2022-09-28T09:02:28.587Z,0.60
2022-09-28T09:05:14.738Z,0.70
2022-09-28T09:08:07.708Z,0.60
2022-09-28T09:10:57.794Z,0.82
2022-09-28T09:14:10.420Z,0.70
2022-09-28T09:17:01.376Z,0.70
2022-09-28T09:19:59.335Z,1.02
2022-09-28T09:23:00.040Z,0.60
2022-09-28T09:25:54.875Z,0.60
2022-09-28T09:28:56.666Z,0.70
2022-09-28T09:31:32.629Z,1.25
2022-09-28T09:34:23.659Z,2.80
2022-09-28T09:37:20.842Z,2.17
2022-09-28T09:40:44.423Z,2.50
2022-09-28T09:43:29.351Z,1.70
2022-09-28T09:46:39.635Z,1.25
2022-09-28T09:49:19.664Z,1.50
2022-09-28T09:52:19.208Z,1.40
2022-09-28T09:55:10.998Z,1.00
2022-09-28T09:58:04.384Z,1.73
2022-09-28T10:00:46.870Z,2.03
2022-09-28T10:03:31.302Z,4.05
2022-09-28T10:06:16.293Z,12.63
2022-09-28T10:08:52.160Z,17.00
2022-09-28T10:11:28.718Z,7.97
2022-09-28T10:13:57.768Z,4.20
2022-09-28T10:16:48.456Z,2.13
2022-09-28T10:19:32.891Z,2.20
2022-09-28T10:22:22.735Z,2.47
2022-09-28T10:24:57.470Z,4.88
2022-09-28T10:27:35.788Z,2.97
2022-09-28T10:30:12.926Z,2.17
2022-09-28T10:32:45.353Z,1.70
2022-09-28T10:35:12.211Z,1.70
2022-09-28T10:37:50.255Z,1.40
2022-09-28T10:40:54.395Z,1.50
2022-09-28T10:43:38.878Z,2.00
2022-09-28T10:46:15.172Z,1.60
2022-09-28T10:48:54.055Z,1.40
2022-09-28T10:51:46.615Z,2.08
2022-09-28T10:54:25.281Z,2.40
2022-09-28T10:56:55.061Z,2.55
2022-09-28T10:59:46.669Z,1.57
2022-09-28T11:02:24.404Z,2.10
2022-09-28T11:04:57.449Z,1.77
2022-09-28T11:07:28.294Z,1.30
2022-09-28T11:09:56.199Z,1.20
2022-09-28T11:12:31.353Z,1.10
2022-09-28T11:15:02.806Z,1.20
2022-09-28T11:17:38.596Z,1.10
2022-09-28T11:20:27.366Z,1.10
2022-09-28T11:23:00.169Z,1.08
2022-09-28T11:25:32.213Z,1.23
2022-09-28T11:28:02.112Z,1.90
2022-09-28T11:30:32.904Z,2.20
2022-09-28T11:33:38.824Z,3.00
2022-09-28T11:36:43.073Z,2.72
2022-09-28T11:39:39.839Z,1.70
2022-09-28T11:42:40.485Z,24.05
2022-09-28T11:45:28.746Z,5.32
2022-09-28T11:48:05.106Z,3.67
2022-09-28T11:51:03.746Z,7.22
2022-09-28T11:53:50.248Z,8.80
2022-09-28T11:56:35.999Z,3.35
2022-09-28T11:59:27.508Z,1.75
2022-09-28T12:02:31.874Z,3.28
2022-09-28T12:05:17.124Z,2.40
2022-09-28T12:08:00.064Z,1.70
2022-09-28T12:11:15.668Z,2.50
2022-09-28T12:14:04.798Z,3.40
2022-09-28T12:17:04.263Z,3.45
2022-09-28T12:19:35.753Z,6.25
2022-09-28T12:22:16.023Z,2.73
2022-09-28T12:24:47.566Z,2.75
2022-09-28T12:27:40.344Z,2.70
2022-09-28T12:30:15.388Z,2.72
2022-09-28T12:32:54.187Z,5.93
2022-09-28T12:35:56.925Z,3.50
2022-09-28T12:38:23.507Z,3.20
2022-09-28T12:41:18.072Z,2.92
2022-09-28T12:44:13.184Z,3.83
2022-09-28T12:47:10.758Z,2.35
2022-09-28T12:50:36.944Z,2.90
2022-09-28T12:52:58.065Z,2.33
2022-09-28T12:55:57.920Z,2.30
2022-09-28T12:58:42.303Z,7.80
2022-09-28T13:01:23.455Z,5.88
2022-09-28T13:04:06.401Z,2.20
2022-09-28T13:07:11.056Z,2.95
2022-09-28T13:09:49.765Z,1.90
2022-09-28T13:12:24.933Z,1.50
2022-09-28T13:15:08.621Z,1.80
2022-09-28T13:17:43.628Z,2.03
2022-09-28T13:20:19.604Z,1.40
2022-09-28T13:23:07.201Z,1.92
2022-09-28T13:25:36.382Z,1.33
2022-09-28T13:28:05.325Z,1.20
2022-09-28T13:30:34.918Z,1.60
2022-09-28T13:33:05.633Z,2.20
2022-09-28T13:35:33.373Z,3.60
2022-09-28T13:38:15.189Z,3.83
2022-09-28T13:41:03.951Z,6.40
2022-09-28T13:43:59.999Z,4.40
2022-09-28T13:46:55.155Z,2.95
2022-09-28T13:49:56.781Z,3.47
2022-09-28T13:52:32.569Z,5.18
2022-09-28T13:55:18.188Z,3.58
2022-09-28T13:57:48.427Z,2.70
2022-09-28T14:00:27.435Z,1.90
2022-09-28T14:03:10.844Z,1.63
2022-09-28T14:06:11.599Z,1.50
2022-09-28T14:09:05.576Z,1.30
2022-09-28T14:11:34.204Z,2.43
2022-09-28T14:14:14.168Z,1.67
2022-09-28T14:16:42.233Z,1.30
2022-09-28T14:19:19.377Z,1.70
2022-09-28T14:22:05.034Z,2.83
2022-09-28T14:24:47.471Z,2.73
2022-09-28T14:27:29.908Z,1.90
2022-09-28T14:30:12.837Z,2.40
2022-09-28T14:32:43.083Z,2.45
2022-09-28T14:35:31.405Z,2.70
2022-09-28T14:38:21.632Z,3.60
2022-09-28T14:41:09.786Z,9.82
2022-09-28T14:43:45.616Z,15.77
2022-09-28T14:46:15.680Z,9.25
2022-09-28T14:48:48.797Z,13.57
2022-09-28T14:51:38.841Z,6.40
2022-09-28T14:54:12.634Z,9.43
2022-09-28T14:56:42.892Z,9.65
2022-09-28T14:59:22.534Z,16.25
2022-09-28T15:01:55.230Z,20.02
2022-09-28T15:04:26.175Z,16.47
2022-09-28T15:06:53.989Z,15.20
2022-09-28T15:09:38.417Z,13.27
2022-09-28T15:12:13.832Z,16.98
2022-09-28T15:14:49.775Z,18.00
2022-09-28T15:17:21.240Z,18.07
2022-09-28T15:20:07.350Z,21.90
2022-09-28T15:22:34.378Z,22.70
2022-09-28T15:25:03.201Z,30.30
2022-09-28T15:27:35.652Z,26.88
2022-09-28T15:30:20.088Z,16.53
2022-09-28T15:32:46.980Z,12.82
2022-09-28T15:35:20.426Z,15.68
2022-09-28T15:37:52.110Z,13.27
2022-09-28T15:40:28.817Z,13.57
2022-09-28T15:42:59.291Z,14.77
2022-09-28T15:45:37.878Z,14.38
2022-09-28T15:48:29.105Z,15.98
2022-09-28T15:51:14.093Z,15.57
2022-09-28T15:54:09.299Z,10.38
2022-09-28T15:56:57.758Z,8.60
2022-09-28T15:59:34.796Z,7.68
2022-09-28T16:02:18.380Z,11.55
2022-09-28T16:04:54.524Z,10.15
2022-09-28T16:07:24.340Z,12.73
2022-09-28T16:09:56.968Z,13.07
2022-09-28T16:12:25.572Z,13.70
2022-09-28T16:14:55.888Z,13.15
2022-09-28T16:17:32.673Z,9.52
2022-09-28T16:20:19.086Z,12.02
2022-09-28T16:22:45.914Z,14.73
2022-09-28T16:25:19.550Z,10.88
2022-09-28T16:27:46.595Z,10.93
2022-09-28T16:30:24.166Z,10.73
2022-09-28T16:32:58.484Z,9.75
2022-09-28T16:35:40.279Z,11.20
2022-09-28T16:38:15.420Z,12.75
2022-09-28T16:40:55.105Z,12.40
2022-09-28T16:43:26.780Z,11.95
2022-09-28T16:46:00.279Z,10.38
2022-09-28T16:48:30.254Z,13.87
2022-09-28T16:50:57.652Z,13.73
2022-09-28T16:53:43.724Z,10.27
2022-09-28T16:56:12.122Z,6.63
2022-09-28T16:58:39.047Z,5.68
2022-09-28T17:01:09.562Z,5.20
2022-09-28T17:03:36.629Z,5.18
2022-09-28T17:06:06.216Z,4.50
2022-09-28T17:08:35.543Z,3.60
2022-09-28T17:11:22.761Z,3.42
2022-09-28T17:13:49.197Z,3.90
2022-09-28T17:16:20.995Z,4.47
2022-09-28T17:18:51.889Z,4.25
2022-09-28T17:21:20.585Z,3.50
2022-09-28T17:23:49.219Z,3.10
2022-09-28T17:26:33.396Z,2.20
2022-09-28T17:29:01.902Z,3.15
2022-09-28T17:31:30.142Z,3.63
2022-09-28T17:33:56.871Z,4.00
2022-09-28T17:36:25.555Z,3.30
2022-09-28T17:38:52.698Z,3.53
2022-09-28T17:41:20.966Z,2.67
2022-09-28T17:43:49.286Z,2.58
2022-09-28T17:46:21.223Z,2.20
2022-09-28T17:48:47.908Z,13.30
2022-09-28T17:51:14.770Z,4.07
2022-09-28T17:53:41.638Z,4.30
2022-09-28T17:56:09.689Z,5.75
2022-09-28T17:58:36.908Z,5.50
2022-09-28T18:01:03.603Z,4.28
2022-09-28T18:03:30.556Z,3.30
2022-09-28T18:06:08.591Z,4.28
2022-09-28T18:08:36.929Z,5.35
2022-09-28T18:11:03.809Z,4.63
2022-09-28T18:13:30.477Z,3.20
2022-09-28T18:15:57.243Z,3.23
2022-09-28T18:18:24.991Z,4.57
2022-09-28T18:20:52.189Z,5.75
2022-09-28T18:23:18.911Z,6.15
2022-09-28T18:25:46.705Z,7.05
2022-09-28T18:28:14.499Z,4.23
2022-09-28T18:30:43.717Z,6.10
2022-09-28T18:33:12.454Z,5.90
2022-09-28T18:35:39.923Z,5.07
2022-09-28T18:38:07.333Z,4.72
2022-09-28T18:40:35.587Z,4.53
2022-09-28T18:43:03.783Z,4.70
2022-09-28T18:45:31.151Z,4.75
2022-09-28T18:47:58.056Z,4.25
2022-09-28T18:50:24.711Z,4.40
2022-09-28T18:52:51.553Z,4.57
2022-09-28T18:55:19.080Z,4.35
2022-09-28T18:57:46.784Z,9.88
2022-09-28T19:00:15.160Z,5.78
2022-09-28T19:02:42.225Z,4.60
2022-09-28T19:05:09.313Z,3.23
2022-09-28T19:07:36.306Z,3.70
2022-09-28T19:10:03.911Z,6.45
2022-09-28T19:12:30.621Z,4.47
2022-09-28T19:14:57.361Z,4.35
2022-09-28T19:17:24.197Z,3.10
2022-09-28T19:19:51.625Z,4.43
2022-09-28T19:22:18.334Z,4.00
2022-09-28T19:24:45.357Z,4.30
2022-09-28T19:27:11.987Z,4.97
2022-09-28T19:29:38.642Z,5.47
2022-09-28T19:32:05.506Z,3.70
2022-09-28T19:34:32.531Z,3.25
2022-09-28T19:37:03.726Z,4.10
2022-09-28T19:39:31.288Z,8.43
2022-09-28T19:41:59.526Z,7.70
2022-09-28T19:44:28.412Z,5.22
2022-09-28T19:47:07.372Z,3.58
2022-09-28T19:49:37.069Z,3.08
2022-09-28T19:52:15.681Z,3.20
2022-09-28T19:54:45.096Z,3.53
2022-09-28T19:57:14.371Z,4.03
2022-09-28T19:59:41.137Z,4.68
2022-09-28T20:02:10.163Z,3.40
2022-09-28T20:04:37.139Z,4.03
2022-09-28T20:07:04.234Z,4.00
2022-09-28T20:09:32.523Z,5.03
2022-09-28T20:11:59.520Z,4.28
2022-09-28T20:14:31.230Z,6.13
2022-09-28T20:17:01.100Z,4.68
2022-09-28T20:19:27.845Z,4.80
2022-09-28T20:21:58.499Z,4.25
2022-09-28T20:24:25.487Z,5.18
2022-09-28T20:26:52.114Z,4.30
2022-09-28T20:29:18.900Z,4.20
2022-09-28T20:31:45.752Z,4.90
2022-09-28T20:34:12.783Z,5.00
2022-09-28T20:36:41.293Z,4.57
2022-09-28T20:39:10.393Z,5.78
2022-09-28T20:41:37.008Z,4.40
2022-09-28T20:44:06.545Z,4.20
2022-09-28T20:46:36.366Z,4.32
2022-09-28T20:49:04.418Z,4.00
2022-09-28T20:51:31.490Z,5.72
2022-09-28T20:53:59.387Z,5.63
2022-09-28T20:56:28.035Z,6.70
2022-09-28T20:58:55.238Z,6.25
2022-09-28T21:01:30.524Z,6.60
2022-09-28T21:04:02.456Z,5.57
2022-09-28T21:06:35.445Z,5.55
2022-09-28T21:09:03.560Z,5.23
2022-09-28T21:11:31.249Z,5.18
2022-09-28T21:14:00.253Z,5.63
2022-09-28T21:16:29.233Z,6.05
2022-09-28T21:18:56.351Z,5.90
2022-09-28T21:21:24.289Z,5.03
2022-09-28T21:23:55.058Z,5.18
2022-09-28T21:26:24.998Z,5.70
2022-09-28T21:28:53.705Z,5.38
2022-09-28T21:31:24.766Z,4.57
2022-09-28T21:33:54.965Z,4.90
2022-09-28T21:36:21.908Z,6.10
2022-09-28T21:38:49.366Z,5.60
2022-09-28T21:41:16.469Z,9.07
2022-09-28T21:43:43.526Z,7.20
2022-09-28T21:46:10.677Z,5.70
2022-09-28T21:48:37.673Z,5.70
2022-09-28T21:51:06.981Z,5.20
2022-09-28T21:53:36.106Z,4.47
2022-09-28T21:56:06.187Z,4.60
2022-09-28T21:58:34.512Z,3.73
2022-09-28T22:01:15.521Z,4.22
2022-09-28T22:03:44.362Z,3.60
2022-09-28T22:06:11.576Z,3.22
2022-09-28T22:08:39.055Z,3.15
2022-09-28T22:11:09.457Z,3.70
2022-09-28T22:13:44.454Z,3.45
2022-09-28T22:16:12.742Z,4.25
2022-09-28T22:18:39.920Z,3.60
2022-09-28T22:21:16.458Z,3.20
2022-09-28T22:23:43.438Z,3.50
2022-09-28T22:26:13.775Z,3.28
2022-09-28T22:28:45.763Z,3.80
2022-09-28T22:31:13.059Z,3.40
2022-09-28T22:33:40.165Z,2.90
2022-09-28T22:36:07.814Z,2.50
2022-09-28T22:38:35.250Z,2.92
2022-09-28T22:41:04.978Z,2.85
2022-09-28T22:43:33.148Z,2.30
2022-09-28T22:46:20.278Z,2.75
2022-09-28T22:48:48.499Z,2.10
2022-09-28T22:51:15.818Z,2.10
2022-09-28T22:53:43.069Z,2.53
2022-09-28T22:56:12.579Z,2.55
2022-09-28T22:58:42.994Z,2.67
2022-09-28T23:01:09.688Z,2.70
2022-09-28T23:03:39.963Z,2.50
2022-09-28T23:06:08.152Z,2.88
2022-09-28T23:08:35.550Z,2.58
2022-09-28T23:11:02.280Z,2.95
2022-09-28T23:13:31.007Z,3.50
2022-09-28T23:15:59.737Z,3.30
2022-09-28T23:18:29.370Z,3.13
2022-09-28T23:20:58.891Z,3.15
2022-09-28T23:23:26.693Z,4.40
2022-09-28T23:25:53.811Z,11.77
2022-09-28T23:28:21.925Z,15.95
2022-09-28T23:30:48.959Z,17.27
2022-09-28T23:33:17.625Z,15.75
2022-09-28T23:35:44.818Z,14.00
2022-09-28T23:38:13.630Z,6.83
2022-09-28T23:40:41.344Z,4.47
2022-09-28T23:43:08.640Z,3.60
2022-09-28T23:45:35.422Z,3.25
2022-09-28T23:48:02.536Z,2.33
2022-09-28T23:50:29.494Z,2.17
2022-09-28T23:52:56.249Z,2.00
2022-09-28T23:55:22.909Z,2.00
2022-09-28T23:57:49.911Z,1.73
